Private Wetterstation Sandau
Wetterdaten: Donnerstag, 22.11.2012
Datum Zeit Temp. A. Feuchte A. Luftdruck Regen Wind Richtung Richtung Taupunkt Windchill
22.11.2012 00:01 2,4 C 94 % 1017,9 hPa 0,0 l/m 0,0 km/h (0 Bft) SO 135 1,5 C 2,4 C
22.11.2012 00:06 2,3 C 94 % 1018,0 hPa 0,0 l/m 0,0 km/h (0 Bft) S-SO 157 1,4 C 2,3 C
22.11.2012 00:11 2,2 C 94 % 1018,2 hPa 0,0 l/m 0,0 km/h (0 Bft) O-SO 112 1,3 C 2,2 C
22.11.2012 00:16 2,1 C 94 % 1018,2 hPa 0,0 l/m 0,0 km/h (0 Bft) O-SO 112 1,2 C 2,1 C
22.11.2012 00:21 2,0 C 94 % 1018,3 hPa 0,0 l/m 1,4 km/h (1 Bft) SO 135 1,1 C 2,0 C
22.11.2012 00:26 2,0 C 94 % 1018,0 hPa 0,0 l/m 0,0 km/h (0 Bft) SO 135 1,1 C 2,0 C
22.11.2012 00:31 2,0 C 94 % 1018,1 hPa 0,0 l/m 0,0 km/h (0 Bft) SO 135 1,1 C 2,0 C
22.11.2012 00:36 2,1 C 94 % 1018,2 hPa 0,0 l/m 0,0 km/h (0 Bft) SO 135 1,2 C 2,1 C
22.11.2012 00:41 2,2 C 94 % 1018,3 hPa 0,0 l/m 2,2 km/h (1 Bft) O-SO 112 1,3 C 2,2 C
22.11.2012 00:46 2,3 C 94 % 1018,2 hPa 0,0 l/m 0,0 km/h (0 Bft) SO 135 1,4 C 2,3 C
22.11.2012 00:51 2,4 C 94 % 1018,4 hPa 0,0 l/m 3,2 km/h (1 Bft) SO 135 1,5 C 2,4 C
22.11.2012 00:56 2,5 C 94 % 1018,3 hPa 0,0 l/m 2,9 km/h (1 Bft) S-SO 157 1,6 C 2,5 C
22.11.2012 01:01 2,7 C 94 % 1018,3 hPa 0,0 l/m 2,2 km/h (1 Bft) S-SO 157 1,8 C 2,7 C
22.11.2012 01:06 2,8 C 94 % 1018,5 hPa 0,0 l/m 0,0 km/h (0 Bft) S-SO 157 1,9 C 2,8 C
22.11.2012 01:11 2,9 C 94 % 1018,3 hPa 0,0 l/m 2,9 km/h (1 Bft) S-SO 157 2,0 C 2,9 C
22.11.2012 01:16 2,9 C 94 % 1018,3 hPa 0,0 l/m 0,0 km/h (0 Bft) S-SO 157 2,0 C 2,9 C
22.11.2012 01:21 3,0 C 94 % 1018,2 hPa 0,0 l/m 4,0 km/h (1 Bft) SO 135 2,1 C 3,0 C
22.11.2012 01:26 3,1 C 95 % 1018,3 hPa 0,0 l/m 1,4 km/h (1 Bft) S 180 2,4 C 3,1 C
22.11.2012 01:31 3,3 C 95 % 1018,4 hPa 0,0 l/m 3,2 km/h (1 Bft) S-SO 157 2,6 C 3,3 C
22.11.2012 01:36 3,3 C 95 % 1018,4 hPa 0,0 l/m 0,0 km/h (0 Bft) S 180 2,6 C 3,3 C
22.11.2012 01:41 3,4 C 94 % 1018,2 hPa 0,0 l/m 5,0 km/h (1 Bft) S-SO 157 2,5 C 2,3 C
22.11.2012 01:46 3,5 C 94 % 1018,2 hPa 0,0 l/m 3,6 km/h (1 Bft) S-SO 157 2,6 C 3,5 C
22.11.2012 01:51 3,6 C 94 % 1018,3 hPa 0,0 l/m 4,7 km/h (1 Bft) S-SO 157 2,7 C 2,6 C
22.11.2012 01:56 3,6 C 94 % 1018,5 hPa 0,0 l/m 6,8 km/h (2 Bft) S-SO 157 2,7 C 1,8 C
22.11.2012 02:01 3,6 C 94 % 1018,5 hPa 0,0 l/m 0,0 km/h (0 Bft) S-SW 202 2,7 C 3,6 C
22.11.2012 02:06 3,6 C 94 % 1018,4 hPa 0,0 l/m 3,6 km/h (1 Bft) S-SO 157 2,7 C 3,6 C
22.11.2012 02:11 3,6 C 94 % 1018,4 hPa 0,0 l/m 5,8 km/h (2 Bft) S-SO 157 2,7 C 2,2 C
22.11.2012 02:16 3,6 C 94 % 1018,3 hPa 0,0 l/m 6,1 km/h (2 Bft) S-SW 202 2,7 C 2,1 C
22.11.2012 02:21 3,4 C 94 % 1018,4 hPa 0,0 l/m 4,3 km/h (1 Bft) S-SO 157 2,5 C 3,4 C
22.11.2012 02:26 3,3 C 94 % 1018,5 hPa 0,0 l/m 3,6 km/h (1 Bft) S 180 2,4 C 3,3 C
22.11.2012 02:31 3,3 C 94 % 1018,3 hPa 0,0 l/m 6,1 km/h (2 Bft) S-SO 157 2,4 C 1,7 C
22.11.2012 02:36 3,3 C 94 % 1018,3 hPa 0,0 l/m 4,0 km/h (1 Bft) S-SW 202 2,4 C 3,3 C
22.11.2012 02:41 3,3 C 94 % 1018,5 hPa 0,0 l/m 7,2 km/h (2 Bft) S-SO 157 2,4 C 1,4 C
22.11.2012 02:46 3,3 C 95 % 1018,5 hPa 0,0 l/m 0,0 km/h (0 Bft) S-SW 202 2,6 C 3,3 C
22.11.2012 02:51 3,3 C 95 % 1018,6 hPa 0,0 l/m 2,5 km/h (1 Bft) S 180 2,6 C 3,3 C
22.11.2012 02:56 3,3 C 95 % 1018,7 hPa 0,0 l/m 4,7 km/h (1 Bft) S-SW 202 2,6 C 2,3 C
22.11.2012 03:01 3,4 C 95 % 1018,6 hPa 0,0 l/m 4,7 km/h (1 Bft) S 180 2,7 C 2,4 C
22.11.2012 03:06 3,4 C 94 % 1018,5 hPa 0,0 l/m 5,4 km/h (1 Bft) SO 135 2,5 C 2,1 C
22.11.2012 03:11 3,4 C 94 % 1018,6 hPa 0,0 l/m 4,7 km/h (1 Bft) S-SO 157 2,5 C 2,4 C
22.11.2012 03:16 3,5 C 94 % 1018,6 hPa 0,0 l/m 4,7 km/h (1 Bft) S-SW 202 2,6 C 2,5 C
22.11.2012 03:21 3,5 C 95 % 1018,6 hPa 0,0 l/m 5,0 km/h (1 Bft) SO 135 2,8 C 2,4 C
22.11.2012 03:26 3,5 C 95 % 1018,6 hPa 0,0 l/m 6,1 km/h (2 Bft) S 180 2,8 C 2,0 C
22.11.2012 03:31 3,5 C 95 % 1018,6 hPa 0,0 l/m 4,3 km/h (1 Bft) S-SW 202 2,8 C 3,5 C
22.11.2012 03:36 3,5 C 95 % 1018,5 hPa 0,0 l/m 4,7 km/h (1 Bft) W-SW 247 2,8 C 2,5 C
22.11.2012 03:41 3,5 C 95 % 1018,6 hPa 0,0 l/m 4,0 km/h (1 Bft) S 180 2,8 C 3,5 C
22.11.2012 03:46 3,5 C 95 % 1018,5 hPa 0,0 l/m 9,7 km/h (2 Bft) S 180 2,8 C 0,9 C
22.11.2012 03:51 3,5 C 95 % 1018,6 hPa 0,0 l/m 3,6 km/h (1 Bft) S-SW 202 2,8 C 3,5 C
22.11.2012 03:56 3,5 C 95 % 1018,6 hPa 0,0 l/m 0,0 km/h (0 Bft) W-SW 247 2,8 C 3,5 C
22.11.2012 04:01 3,4 C 95 % 1018,6 hPa 0,0 l/m 9,4 km/h (2 Bft) SW 225 2,7 C 0,9 C
22.11.2012 04:06 3,4 C 95 % 1018,5 hPa 0,0 l/m 5,0 km/h (1 Bft) S-SW 202 2,7 C 2,3 C
22.11.2012 04:11 3,4 C 95 % 1018,7 hPa 0,0 l/m 11,5 km/h (2 Bft) S-SW 202 2,7 C 0,4 C
22.11.2012 04:16 3,4 C 95 % 1018,7 hPa 0,0 l/m 4,3 km/h (1 Bft) S-SW 202 2,7 C 3,4 C
22.11.2012 04:21 3,4 C 95 % 1018,7 hPa 0,0 l/m 3,6 km/h (1 Bft) S-SO 157 2,7 C 3,4 C
22.11.2012 04:26 3,4 C 95 % 1018,6 hPa 0,0 l/m 6,1 km/h (2 Bft) S-SW 202 2,7 C 1,8 C
22.11.2012 04:31 3,5 C 95 % 1018,7 hPa 0,0 l/m 7,9 km/h (2 Bft) SW 225 2,8 C 1,4 C
22.11.2012 04:36 3,5 C 95 % 1018,6 hPa 0,0 l/m 7,2 km/h (2 Bft) S 180 2,8 C 1,6 C
22.11.2012 04:41 3,6 C 95 % 1018,8 hPa 0,0 l/m 7,6 km/h (2 Bft) SW 225 2,9 C 1,6 C
22.11.2012 04:46 3,6 C 95 % 1018,7 hPa 0,0 l/m 4,7 km/h (1 Bft) S-SW 202 2,9 C 2,6 C
22.11.2012 04:51 3,6 C 95 % 1018,9 hPa 0,0 l/m 3,2 km/h (1 Bft) SW 225 2,9 C 3,6 C
22.11.2012 04:56 3,8 C 95 % 1018,9 hPa 0,0 l/m 5,4 km/h (1 Bft) S-SW 202 3,1 C 2,6 C
22.11.2012 05:01 3,8 C 94 % 1018,9 hPa 0,0 l/m 4,3 km/h (1 Bft) S-SO 157 2,9 C 3,8 C
22.11.2012 05:06 3,8 C 95 % 1018,9 hPa 0,0 l/m 12,2 km/h (2 Bft) S-SW 202 3,1 C 0,8 C
22.11.2012 05:11 3,9 C 94 % 1019,0 hPa 0,0 l/m 7,9 km/h (2 Bft) SW 225 3,0 C 1,9 C
22.11.2012 05:16 4,1 C 95 % 1018,9 hPa 0,0 l/m 7,2 km/h (2 Bft) S-SW 202 3,4 C 2,3 C
22.11.2012 05:21 4,3 C 95 % 1019,2 hPa 0,0 l/m 9,7 km/h (2 Bft) S-SO 157 3,6 C 1,9 C
22.11.2012 05:26 4,6 C 95 % 1019,1 hPa 0,0 l/m 14,4 km/h (3 Bft) W-SW 247 3,9 C 1,4 C
22.11.2012 05:31 4,8 C 95 % 1019,3 hPa 0,0 l/m 7,9 km/h (2 Bft) W-SW 247 4,1 C 2,9 C
22.11.2012 05:36 4,9 C 94 % 1019,2 hPa 0,0 l/m 14,4 km/h (3 Bft) SW 225 4,0 C 1,7 C
22.11.2012 05:41 5,1 C 94 % 1019,3 hPa 0,0 l/m 6,5 km/h (2 Bft) S-SO 157 4,2 C 3,7 C
22.11.2012 05:46 5,3 C 95 % 1019,3 hPa 0,0 l/m 10,1 km/h (2 Bft) SW 225 4,6 C 3,0 C
22.11.2012 05:51 5,4 C 95 % 1019,4 hPa 0,0 l/m 7,2 km/h (2 Bft) W-SW 247 4,7 C 3,8 C
22.11.2012 05:56 5,4 C 95 % 1019,3 hPa 0,0 l/m 27,4 km/h (4 Bft) W 270 4,7 C 0,8 C
22.11.2012 06:01 5,6 C 95 % 1019,6 hPa 0,0 l/m 9,7 km/h (2 Bft) S 180 4,9 C 3,4 C
22.11.2012 06:06 5,6 C 95 % 1019,6 hPa 0,0 l/m 9,0 km/h (2 Bft) S-SW 202 4,9 C 3,6 C
22.11.2012 06:11 5,8 C 95 % 1019,6 hPa 0,0 l/m 8,6 km/h (2 Bft) SW 225 5,1 C 3,9 C
22.11.2012 06:16 5,8 C 95 % 1019,6 hPa 0,0 l/m 8,3 km/h (2 Bft) S-SW 202 5,1 C 4,0 C
22.11.2012 06:21 5,9 C 95 % 1019,7 hPa 0,0 l/m 11,9 km/h (2 Bft) S-SW 202 5,2 C 3,4 C
22.11.2012 06:26 5,9 C 95 % 1019,7 hPa 0,0 l/m 9,7 km/h (2 Bft) W-SW 247 5,2 C 3,8 C
22.11.2012 06:31 5,9 C 94 % 1019,8 hPa 0,0 l/m 15,8 km/h (3 Bft) SW 225 5,0 C 2,7 C
22.11.2012 06:36 5,9 C 94 % 1019,8 hPa 0,0 l/m 7,9 km/h (2 Bft) S-SW 202 5,0 C 4,2 C
22.11.2012 06:41 5,9 C 94 % 1019,8 hPa 0,0 l/m 6,8 km/h (2 Bft) S 180 5,0 C 4,5 C
22.11.2012 06:46 5,9 C 94 % 1020,0 hPa 0,0 l/m 3,6 km/h (1 Bft) SW 225 5,0 C 5,9 C
22.11.2012 06:51 5,9 C 93 % 1020,0 hPa 0,0 l/m 6,5 km/h (2 Bft) W-SW 247 4,9 C 4,6 C
22.11.2012 06:56 5,9 C 93 % 1019,9 hPa 0,0 l/m 9,4 km/h (2 Bft) W-SW 247 4,9 C 3,9 C
22.11.2012 07:01 5,9 C 93 % 1020,1 hPa 0,0 l/m 7,2 km/h (2 Bft) SW 225 4,9 C 4,4 C
22.11.2012 07:06 5,9 C 93 % 1020,1 hPa 0,0 l/m 3,2 km/h (1 Bft) SW 225 4,9 C 5,9 C
22.11.2012 07:11 5,9 C 93 % 1020,3 hPa 0,0 l/m 7,9 km/h (2 Bft) SW 225 4,9 C 4,2 C
22.11.2012 07:16 6,1 C 93 % 1020,3 hPa 0,0 l/m 6,1 km/h (2 Bft) S-SW 202 5,1 C 5,0 C
22.11.2012 07:21 6,1 C 93 % 1020,3 hPa 0,0 l/m 6,5 km/h (2 Bft) SW 225 5,1 C 4,8 C
22.11.2012 07:26 6,2 C 93 % 1020,4 hPa 0,0 l/m 8,6 km/h (2 Bft) SW 225 5,2 C 4,4 C
22.11.2012 07:31 6,4 C 93 % 1020,4 hPa 0,0 l/m 13,7 km/h (3 Bft) SW 225 5,4 C 3,7 C
22.11.2012 07:36 6,4 C 92 % 1020,6 hPa 0,0 l/m 8,6 km/h (2 Bft) S 180 5,2 C 4,6 C
22.11.2012 07:41 6,5 C 92 % 1020,4 hPa 0,0 l/m 4,7 km/h (1 Bft) S-SW 202 5,3 C 5,9 C
22.11.2012 07:46 6,6 C 92 % 1020,6 hPa 0,0 l/m 12,2 km/h (2 Bft) S-SW 202 5,4 C 4,2 C
22.11.2012 07:51 6,6 C 92 % 1020,7 hPa 0,0 l/m 6,8 km/h (2 Bft) S-SW 202 5,4 C 5,3 C
22.11.2012 07:56 6,5 C 92 % 1020,9 hPa 0,0 l/m 7,6 km/h (2 Bft) S-SW 202 5,3 C 5,0 C
22.11.2012 08:01 6,4 C 91 % 1020,7 hPa 0,0 l/m 8,3 km/h (2 Bft) SW 225 5,0 C 4,7 C
22.11.2012 08:06 6,5 C 91 % 1021,0 hPa 0,0 l/m 10,4 km/h (2 Bft) W-SW 247 5,1 C 4,4 C
22.11.2012 08:11 6,5 C 91 % 1021,0 hPa 0,0 l/m 11,2 km/h (2 Bft) W-SW 247 5,1 C 4,2 C
22.11.2012 08:16 6,6 C 91 % 1021,1 hPa 0,0 l/m 11,9 km/h (2 Bft) W-SW 247 5,2 C 4,2 C
22.11.2012 08:21 6,7 C 91 % 1021,1 hPa 0,0 l/m 14,0 km/h (3 Bft) SW 225 5,3 C 4,0 C
22.11.2012 08:26 6,7 C 91 % 1021,1 hPa 0,0 l/m 9,0 km/h (2 Bft) W-SW 247 5,3 C 4,9 C
22.11.2012 08:31 6,8 C 91 % 1021,1 hPa 0,0 l/m 9,0 km/h (2 Bft) W-SW 247 5,4 C 5,0 C
22.11.2012 08:36 6,8 C 91 % 1021,4 hPa 0,0 l/m 13,3 km/h (3 Bft) W 270 5,4 C 4,2 C
22.11.2012 08:41 6,8 C 91 % 1021,3 hPa 0,0 l/m 9,4 km/h (2 Bft) W-SW 247 5,4 C 4,9 C
22.11.2012 08:46 6,8 C 91 % 1021,5 hPa 0,0 l/m 13,7 km/h (3 Bft) W-SW 247 5,4 C 4,2 C
22.11.2012 08:51 6,9 C 91 % 1021,6 hPa 0,0 l/m 6,1 km/h (2 Bft) S-SW 202 5,5 C 5,9 C
22.11.2012 08:56 6,9 C 91 % 1021,5 hPa 0,0 l/m 4,0 km/h (1 Bft) SW 225 5,5 C 6,9 C
22.11.2012 09:01 6,9 C 91 % 1021,7 hPa 0,0 l/m 5,8 km/h (2 Bft) W-SW 247 5,5 C 6,0 C
22.11.2012 09:06 7,1 C 91 % 1021,7 hPa 0,0 l/m 12,6 km/h (3 Bft) W-SW 247 5,7 C 4,7 C
22.11.2012 09:11 7,2 C 90 % 1021,7 hPa 0,0 l/m 10,4 km/h (2 Bft) SW 225 5,7 C 5,2 C
22.11.2012 09:16 7,2 C 90 % 1021,9 hPa 0,0 l/m 7,6 km/h (2 Bft) SW 225 5,7 C 5,8 C
22.11.2012 09:21 7,3 C 90 % 1022,0 hPa 0,0 l/m 7,9 km/h (2 Bft) W-SW 247 5,8 C 5,9 C
22.11.2012 09:26 7,4 C 90 % 1022,0 hPa 0,0 l/m 4,7 km/h (1 Bft) W-SW 247 5,9 C 6,9 C
22.11.2012 09:31 7,4 C 90 % 1022,1 hPa 0,0 l/m 8,3 km/h (2 Bft) W-SW 247 5,9 C 5,9 C
22.11.2012 09:36 7,5 C 90 % 1022,1 hPa 0,0 l/m 10,4 km/h (2 Bft) W-SW 247 6,0 C 5,6 C
22.11.2012 09:41 7,5 C 89 % 1022,2 hPa 0,0 l/m 10,4 km/h (2 Bft) W-SW 247 5,8 C 5,6 C
22.11.2012 09:46 7,6 C 89 % 1022,4 hPa 0,0 l/m 9,0 km/h (2 Bft) SW 225 5,9 C 6,0 C
22.11.2012 09:51 7,8 C 88 % 1022,4 hPa 0,0 l/m 9,7 km/h (2 Bft) S-SW 202 5,9 C 6,1 C
22.11.2012 09:56 7,9 C 88 % 1022,6 hPa 0,0 l/m 5,4 km/h (1 Bft) W 270 6,0 C 7,2 C
22.11.2012 10:01 7,9 C 88 % 1022,6 hPa 0,0 l/m 10,4 km/h (2 Bft) W 270 6,0 C 6,0 C
22.11.2012 10:06 8,1 C 88 % 1022,6 hPa 0,0 l/m 15,8 km/h (3 Bft) W-SW 247 6,2 C 5,5 C
22.11.2012 10:11 8,2 C 87 % 1022,6 hPa 0,0 l/m 16,9 km/h (3 Bft) W-SW 247 6,2 C 5,5 C
22.11.2012 10:16 8,4 C 87 % 1022,7 hPa 0,0 l/m 10,8 km/h (2 Bft) W-SW 247 6,4 C 6,6 C
22.11.2012 10:21 8,4 C 86 % 1022,9 hPa 0,0 l/m 17,6 km/h (3 Bft) W 270 6,2 C 5,6 C
22.11.2012 10:26 8,5 C 86 % 1022,9 hPa 0,0 l/m 5,8 km/h (2 Bft) W-SW 247 6,3 C 7,8 C
22.11.2012 10:31 8,7 C 85 % 1023,0 hPa 0,0 l/m 8,6 km/h (2 Bft) NW 315 6,3 C 7,4 C
22.11.2012 10:36 8,8 C 84 % 1022,9 hPa 0,0 l/m 5,8 km/h (2 Bft) W-SW 247 6,2 C 8,1 C
22.11.2012 10:41 8,9 C 84 % 1023,0 hPa 0,0 l/m 8,6 km/h (2 Bft) W 270 6,3 C 7,6 C
22.11.2012 10:46 9,0 C 84 % 1023,1 hPa 0,0 l/m 19,1 km/h (3 Bft) SW 225 6,4 C 6,2 C
22.11.2012 10:51 9,1 C 83 % 1023,2 hPa 0,0 l/m 12,2 km/h (2 Bft) W-SW 247 6,4 C 7,2 C
22.11.2012 10:56 9,2 C 83 % 1023,2 hPa 0,0 l/m 3,6 km/h (1 Bft) W-SW 247 6,5 C 9,2 C
22.11.2012 11:01 9,2 C 83 % 1023,2 hPa 0,0 l/m 18,0 km/h (3 Bft) W-SW 247 6,5 C 6,6 C
22.11.2012 11:06 9,3 C 83 % 1023,1 hPa 0,0 l/m 22,3 km/h (4 Bft) W 270 6,6 C 6,3 C
22.11.2012 11:11 9,2 C 82 % 1023,2 hPa 0,0 l/m 19,1 km/h (3 Bft) W-SW 247 6,3 C 6,5 C
22.11.2012 11:16 9,2 C 82 % 1023,1 hPa 0,0 l/m 8,6 km/h (2 Bft) W-SW 247 6,3 C 7,9 C
22.11.2012 11:21 9,3 C 82 % 1023,2 hPa 0,0 l/m 16,6 km/h (3 Bft) W-NW 292 6,4 C 6,9 C
22.11.2012 11:26 9,3 C 81 % 1023,2 hPa 0,0 l/m 12,2 km/h (2 Bft) W 270 6,2 C 7,4 C
22.11.2012 11:31 9,2 C 81 % 1023,2 hPa 0,0 l/m 28,8 km/h (4 Bft) W 270 6,1 C 5,6 C
22.11.2012 11:36 9,1 C 81 % 1023,3 hPa 0,0 l/m 10,1 km/h (2 Bft) W 270 6,0 C 7,5 C
22.11.2012 11:41 9,1 C 81 % 1023,2 hPa 0,0 l/m 7,6 km/h (2 Bft) W-NW 292 6,0 C 8,0 C
22.11.2012 11:46 9,2 C 81 % 1023,3 hPa 0,0 l/m 16,2 km/h (3 Bft) W-SW 247 6,1 C 6,8 C
22.11.2012 11:51 9,3 C 81 % 1023,3 hPa 0,0 l/m 18,7 km/h (3 Bft) NW 315 6,2 C 6,6 C
22.11.2012 11:56 9,3 C 81 % 1023,4 hPa 0,0 l/m 23,0 km/h (4 Bft) W-SW 247 6,2 C 6,2 C
22.11.2012 12:01 9,3 C 81 % 1023,3 hPa 0,0 l/m 18,4 km/h (3 Bft) W 270 6,2 C 6,7 C
22.11.2012 12:06 9,3 C 81 % 1023,3 hPa 0,0 l/m 2,5 km/h (1 Bft) W 270 6,2 C 9,3 C
22.11.2012 12:11 9,3 C 80 % 1023,5 hPa 0,0 l/m 13,3 km/h (3 Bft) W-SW 247 6,0 C 7,3 C
22.11.2012 12:16 9,4 C 80 % 1023,3 hPa 0,0 l/m 14,4 km/h (3 Bft) W-SW 247 6,1 C 7,3 C
22.11.2012 12:21 9,4 C 79 % 1023,3 hPa 0,0 l/m 12,2 km/h (2 Bft) W-SW 247 5,9 C 7,6 C
22.11.2012 12:26 9,4 C 78 % 1023,3 hPa 0,0 l/m 23,0 km/h (4 Bft) W 270 5,8 C 6,3 C
22.11.2012 12:31 9,4 C 78 % 1023,5 hPa 0,0 l/m 9,7 km/h (2 Bft) NW 315 5,8 C 8,0 C
22.11.2012 12:36 9,5 C 78 % 1023,5 hPa 0,0 l/m 19,4 km/h (3 Bft) W-SW 247 5,9 C 6,8 C
22.11.2012 12:41 9,5 C 78 % 1023,4 hPa 0,0 l/m 9,4 km/h (2 Bft) W-SW 247 5,9 C 8,1 C
22.11.2012 12:46 9,5 C 78 % 1023,4 hPa 0,0 l/m 16,6 km/h (3 Bft) W 270 5,9 C 7,1 C
22.11.2012 12:51 9,5 C 79 % 1023,3 hPa 0,0 l/m 9,4 km/h (2 Bft) W-SW 247 6,0 C 8,1 C
22.11.2012 12:56 9,5 C 79 % 1023,3 hPa 0,0 l/m 14,8 km/h (3 Bft) W 270 6,0 C 7,3 C
22.11.2012 13:01 9,5 C 79 % 1023,4 hPa 0,0 l/m 5,8 km/h (2 Bft) W-SW 247 6,0 C 9,0 C
22.11.2012 13:06 9,5 C 79 % 1023,3 hPa 0,0 l/m 8,6 km/h (2 Bft) W-SW 247 6,0 C 8,3 C
22.11.2012 13:11 9,5 C 79 % 1023,6 hPa 0,0 l/m 4,0 km/h (1 Bft) W 270 6,0 C 9,5 C
22.11.2012 13:16 9,5 C 79 % 1023,6 hPa 0,0 l/m 4,0 km/h (1 Bft) W-SW 247 6,0 C 9,5 C
22.11.2012 13:21 9,6 C 79 % 1023,4 hPa 0,0 l/m 6,8 km/h (2 Bft) SW 225 6,1 C 8,8 C
22.11.2012 13:26 9,5 C 79 % 1023,4 hPa 0,0 l/m 5,4 km/h (1 Bft) SW 225 6,0 C 9,1 C
22.11.2012 13:31 9,6 C 79 % 1023,3 hPa 0,0 l/m 10,1 km/h (2 Bft) SW 225 6,1 C 8,1 C
22.11.2012 13:36 9,6 C 79 % 1023,2 hPa 0,0 l/m 13,7 km/h (3 Bft) W-SW 247 6,1 C 7,6 C
22.11.2012 13:41 9,6 C 78 % 1023,3 hPa 0,0 l/m 6,1 km/h (2 Bft) S-SW 202 6,0 C 9,0 C
22.11.2012 13:46 9,8 C 79 % 1023,2 hPa 0,0 l/m 6,1 km/h (2 Bft) W-SW 247 6,3 C 9,2 C
22.11.2012 13:51 9,8 C 79 % 1023,2 hPa 0,0 l/m 6,5 km/h (2 Bft) W-SW 247 6,3 C 9,1 C
22.11.2012 13:56 9,9 C 78 % 1023,2 hPa 0,0 l/m 9,7 km/h (2 Bft) W-SW 247 6,2 C 8,6 C
22.11.2012 14:01 9,9 C 78 % 1023,4 hPa 0,0 l/m 11,5 km/h (2 Bft) W-SW 247 6,2 C 8,3 C
22.11.2012 14:06 9,9 C 78 % 1023,2 hPa 0,0 l/m 10,4 km/h (2 Bft) W-SW 247 6,2 C 8,4 C
22.11.2012 14:11 9,9 C 78 % 1023,2 hPa 0,0 l/m 5,0 km/h (1 Bft) W-SW 247 6,2 C 9,6 C
22.11.2012 14:16 9,9 C 78 % 1023,3 hPa 0,0 l/m 8,3 km/h (2 Bft) W-SW 247 6,2 C 8,8 C
22.11.2012 14:21 9,8 C 78 % 1023,2 hPa 0,0 l/m 7,2 km/h (2 Bft) S-SW 202 6,1 C 8,9 C
22.11.2012 14:26 9,8 C 78 % 1023,2 hPa 0,0 l/m 2,5 km/h (1 Bft) S 180 6,1 C 9,8 C
22.11.2012 14:31 9,8 C 78 % 1023,5 hPa 0,0 l/m 4,0 km/h (1 Bft) W-SW 247 6,1 C 9,8 C
22.11.2012 14:36 9,9 C 78 % 1023,3 hPa 0,0 l/m 7,2 km/h (2 Bft) S-SW 202 6,2 C 9,1 C
22.11.2012 14:41 9,9 C 78 % 1023,3 hPa 0,0 l/m 6,8 km/h (2 Bft) S 180 6,2 C 9,2 C
22.11.2012 14:46 9,9 C 78 % 1023,3 hPa 0,0 l/m 10,1 km/h (2 Bft) W-SW 247 6,2 C 8,5 C
22.11.2012 14:51 9,9 C 77 % 1023,2 hPa 0,0 l/m 5,4 km/h (1 Bft) S-SW 202 6,1 C 9,5 C
22.11.2012 14:56 9,8 C 77 % 1023,3 hPa 0,0 l/m 8,6 km/h (2 Bft) W-SW 247 6,0 C 8,7 C
22.11.2012 15:01 9,6 C 77 % 1023,3 hPa 0,0 l/m 5,8 km/h (2 Bft) W-SW 247 5,8 C 9,1 C
22.11.2012 15:06 9,6 C 77 % 1023,3 hPa 0,0 l/m 5,8 km/h (2 Bft) W-SW 247 5,8 C 9,1 C
22.11.2012 15:11 9,5 C 78 % 1023,5 hPa 0,0 l/m 7,6 km/h (2 Bft) SW 225 5,9 C 8,5 C
22.11.2012 15:16 9,4 C 77 % 1023,5 hPa 0,0 l/m 4,0 km/h (1 Bft) SW 225 5,6 C 9,4 C
22.11.2012 15:21 9,3 C 78 % 1023,4 hPa 0,0 l/m 9,4 km/h (2 Bft) SW 225 5,7 C 7,9 C
22.11.2012 15:26 9,1 C 78 % 1023,5 hPa 0,0 l/m 4,0 km/h (1 Bft) SW 225 5,5 C 9,1 C
22.11.2012 15:31 8,9 C 78 % 1023,4 hPa 0,0 l/m 4,0 km/h (1 Bft) SW 225 5,3 C 8,9 C
22.11.2012 15:36 8,8 C 79 % 1023,6 hPa 0,0 l/m 3,2 km/h (1 Bft) S 180 5,4 C 8,8 C
22.11.2012 15:41 8,6 C 79 % 1023,6 hPa 0,0 l/m 2,9 km/h (1 Bft) SW 225 5,2 C 8,6 C
22.11.2012 15:46 8,4 C 79 % 1023,6 hPa 0,0 l/m 4,3 km/h (1 Bft) S 180 5,0 C 8,4 C
22.11.2012 15:51 8,3 C 80 % 1023,5 hPa 0,0 l/m 0,0 km/h (0 Bft) S-SW 202 5,1 C 8,3 C
22.11.2012 15:56 8,1 C 80 % 1023,5 hPa 0,0 l/m 0,0 km/h (0 Bft) S-SO 157 4,9 C 8,1 C
22.11.2012 16:01 7,9 C 80 % 1023,6 hPa 0,0 l/m 0,0 km/h (0 Bft) S-SW 202 4,7 C 7,9 C
22.11.2012 16:06 7,6 C 81 % 1023,6 hPa 0,0 l/m 2,2 km/h (1 Bft) S-SO 157 4,6 C 7,6 C
22.11.2012 16:11 7,4 C 81 % 1023,6 hPa 0,0 l/m 2,9 km/h (1 Bft) S-SW 202 4,4 C 7,4 C
22.11.2012 16:16 7,2 C 82 % 1023,5 hPa 0,0 l/m 5,8 km/h (2 Bft) S-SW 202 4,3 C 6,3 C
22.11.2012 16:21 7,1 C 82 % 1023,6 hPa 0,0 l/m 1,4 km/h (1 Bft) SW 225 4,2 C 7,1 C
22.11.2012 16:26 6,9 C 82 % 1023,6 hPa 0,0 l/m 0,0 km/h (0 Bft) SW 225 4,0 C 6,9 C
22.11.2012 16:31 6,8 C 83 % 1023,6 hPa 0,0 l/m 0,0 km/h (0 Bft) S-SW 202 4,1 C 6,8 C
22.11.2012 16:36 6,5 C 83 % 1023,6 hPa 0,0 l/m 2,2 km/h (1 Bft) S 180 3,8 C 6,5 C
22.11.2012 16:41 6,4 C 84 % 1023,9 hPa 0,0 l/m 2,2 km/h (1 Bft) S-SO 157 3,9 C 6,4 C
22.11.2012 16:46 6,2 C 84 % 1023,9 hPa 0,0 l/m 0,0 km/h (0 Bft) S 180 3,7 C 6,2 C
22.11.2012 16:51 6,0 C 84 % 1023,8 hPa 0,0 l/m 1,4 km/h (1 Bft) S-SO 157 3,5 C 6,0 C
22.11.2012 16:56 5,9 C 85 % 1023,8 hPa 0,0 l/m 2,2 km/h (1 Bft) S-SO 157 3,6 C 5,9 C
22.11.2012 17:01 5,8 C 85 % 1023,7 hPa 0,0 l/m 1,4 km/h (1 Bft) S-SO 157 3,5 C 5,8 C
22.11.2012 17:06 5,6 C 85 % 1023,8 hPa 0,0 l/m 1,4 km/h (1 Bft) S-SO 157 3,3 C 5,6 C
22.11.2012 17:11 5,6 C 86 % 1023,7 hPa 0,0 l/m 0,0 km/h (0 Bft) S-SO 157 3,4 C 5,6 C
22.11.2012 17:16 5,4 C 86 % 1023,7 hPa 0,0 l/m 4,0 km/h (1 Bft) S 180 3,3 C 5,4 C
22.11.2012 17:21 5,3 C 86 % 1023,7 hPa 0,0 l/m 0,0 km/h (0 Bft) S-SO 157 3,2 C 5,3 C
22.11.2012 17:26 5,2 C 86 % 1023,7 hPa 0,0 l/m 4,0 km/h (1 Bft) S-SO 157 3,1 C 5,2 C
22.11.2012 17:31 5,1 C 86 % 1023,6 hPa 0,0 l/m 1,8 km/h (1 Bft) S 180 3,0 C 5,1 C
22.11.2012 17:36 5,0 C 87 % 1023,5 hPa 0,0 l/m 0,0 km/h (0 Bft) S 180 3,0 C 5,0 C
22.11.2012 17:41 4,9 C 87 % 1023,6 hPa 0,0 l/m 1,8 km/h (1 Bft) S-SO 157 2,9 C 4,9 C
22.11.2012 17:46 4,9 C 87 % 1023,6 hPa 0,0 l/m 4,0 km/h (1 Bft) S 180 2,9 C 4,9 C
22.11.2012 17:51 4,8 C 87 % 1023,7 hPa 0,0 l/m 1,1 km/h (1 Bft) S 180 2,8 C 4,8 C
22.11.2012 17:56 4,7 C 87 % 1023,6 hPa 0,0 l/m 1,8 km/h (1 Bft) S-SO 157 2,7 C 4,7 C
22.11.2012 18:01 4,6 C 87 % 1023,6 hPa 0,0 l/m 0,0 km/h (0 Bft) S-SO 157 2,6 C 4,6 C
22.11.2012 18:06 4,5 C 88 % 1023,6 hPa 0,0 l/m 2,5 km/h (1 Bft) S-SO 157 2,7 C 4,5 C
22.11.2012 18:11 4,4 C 88 % 1023,6 hPa 0,0 l/m 5,0 km/h (1 Bft) S-SO 157 2,6 C 3,4 C
22.11.2012 18:16 4,4 C 88 % 1023,6 hPa 0,0 l/m 2,9 km/h (1 Bft) S-SW 202 2,6 C 4,4 C
22.11.2012 18:21 4,4 C 88 % 1023,6 hPa 0,0 l/m 5,0 km/h (1 Bft) S-SO 157 2,6 C 3,4 C
22.11.2012 18:26 4,4 C 88 % 1023,7 hPa 0,0 l/m 5,4 km/h (1 Bft) S-SO 157 2,6 C 3,2 C
22.11.2012 18:31 4,4 C 88 % 1023,7 hPa 0,0 l/m 4,0 km/h (1 Bft) S-SO 157 2,6 C 4,4 C
22.11.2012 18:36 4,4 C 88 % 1023,7 hPa 0,0 l/m 2,5 km/h (1 Bft) S-SO 157 2,6 C 4,4 C
22.11.2012 18:41 4,4 C 89 % 1023,6 hPa 0,0 l/m 4,7 km/h (1 Bft) SW 225 2,7 C 3,5 C
22.11.2012 18:46 4,4 C 89 % 1023,6 hPa 0,0 l/m 4,0 km/h (1 Bft) S-SO 157 2,7 C 4,4 C
22.11.2012 18:51 4,4 C 89 % 1023,6 hPa 0,0 l/m 3,6 km/h (1 Bft) S 180 2,7 C 4,4 C
22.11.2012 18:56 4,4 C 89 % 1023,6 hPa 0,0 l/m 9,0 km/h (2 Bft) SW 225 2,7 C 2,2 C
22.11.2012 19:01 4,4 C 89 % 1023,6 hPa 0,0 l/m 3,6 km/h (1 Bft) S 180 2,7 C 4,4 C
22.11.2012 19:06 4,3 C 89 % 1023,7 hPa 0,0 l/m 0,0 km/h (0 Bft) S 180 2,7 C 4,3 C
22.11.2012 19:11 4,2 C 89 % 1023,7 hPa 0,0 l/m 0,0 km/h (0 Bft) W-SW 247 2,6 C 4,2 C
22.11.2012 19:16 4,1 C 89 % 1023,7 hPa 0,0 l/m 2,5 km/h (1 Bft) S-SW 202 2,5 C 4,1 C
22.11.2012 19:21 4,1 C 89 % 1023,7 hPa 0,0 l/m 4,7 km/h (1 Bft) S 180 2,5 C 3,2 C
22.11.2012 19:26 3,9 C 89 % 1023,7 hPa 0,0 l/m 2,2 km/h (1 Bft) S-SO 157 2,3 C 3,9 C
22.11.2012 19:31 3,9 C 89 % 1023,8 hPa 0,0 l/m 3,2 km/h (1 Bft) S-SW 202 2,3 C 3,9 C
22.11.2012 19:36 3,8 C 89 % 1023,5 hPa 0,0 l/m 1,4 km/h (1 Bft) S-SW 202 2,2 C 3,8 C
22.11.2012 19:41 3,8 C 89 % 1023,6 hPa 0,0 l/m 1,4 km/h (1 Bft) S-SW 202 2,2 C 3,8 C
22.11.2012 19:46 3,8 C 89 % 1023,7 hPa 0,0 l/m 2,5 km/h (1 Bft) S 180 2,2 C 3,8 C
22.11.2012 19:51 3,6 C 89 % 1023,6 hPa 0,0 l/m 0,0 km/h (0 Bft) S-SW 202 2,0 C 3,6 C
22.11.2012 19:56 3,6 C 89 % 1023,7 hPa 0,0 l/m 6,8 km/h (2 Bft) W-SW 247 2,0 C 1,8 C
22.11.2012 20:01 3,6 C 89 % 1023,7 hPa 0,0 l/m 0,0 km/h (0 Bft) S-SO 157 2,0 C 3,6 C
22.11.2012 20:06 3,6 C 90 % 1023,8 hPa 0,0 l/m 0,0 km/h (0 Bft) S-SW 202 2,1 C 3,6 C
22.11.2012 20:11 3,5 C 90 % 1023,8 hPa 0,0 l/m 1,8 km/h (1 Bft) S-SW 202 2,0 C 3,5 C
22.11.2012 20:16 3,5 C 90 % 1023,7 hPa 0,0 l/m 3,2 km/h (1 Bft) SW 225 2,0 C 3,5 C
22.11.2012 20:21 3,5 C 90 % 1023,6 hPa 0,0 l/m 2,2 km/h (1 Bft) S-SW 202 2,0 C 3,5 C
22.11.2012 20:26 3,5 C 90 % 1023,7 hPa 0,0 l/m 2,5 km/h (1 Bft) SW 225 2,0 C 3,5 C
22.11.2012 20:31 3,4 C 90 % 1023,5 hPa 0,0 l/m 4,3 km/h (1 Bft) S-SW 202 1,9 C 3,4 C
22.11.2012 20:36 3,4 C 90 % 1023,6 hPa 0,0 l/m 4,7 km/h (1 Bft) SW 225 1,9 C 2,4 C
22.11.2012 20:41 3,4 C 90 % 1023,7 hPa 0,0 l/m 2,2 km/h (1 Bft) S 180 1,9 C 3,4 C
22.11.2012 20:46 3,3 C 90 % 1023,6 hPa 0,0 l/m 0,0 km/h (0 Bft) S-SO 157 1,8 C 3,3 C
22.11.2012 20:51 3,3 C 90 % 1023,6 hPa 0,0 l/m 3,6 km/h (1 Bft) SO 135 1,8 C 3,3 C
22.11.2012 20:56 3,1 C 90 % 1023,5 hPa 0,0 l/m 1,1 km/h (1 Bft) S 180 1,6 C 3,1 C
22.11.2012 21:01 3,1 C 90 % 1023,4 hPa 0,0 l/m 0,0 km/h (0 Bft) W 270 1,6 C 3,1 C
22.11.2012 21:06 3,1 C 91 % 1023,5 hPa 0,0 l/m 2,5 km/h (1 Bft) S 180 1,8 C 3,1 C
22.11.2012 21:11 3,1 C 91 % 1023,5 hPa 0,0 l/m 0,0 km/h (0 Bft) S-SW 202 1,8 C 3,1 C
22.11.2012 21:16 3,0 C 91 % 1023,5 hPa 0,0 l/m 2,9 km/h (1 Bft) S 180 1,7 C 3,0 C
22.11.2012 21:21 3,1 C 91 % 1023,4 hPa 0,0 l/m 2,5 km/h (1 Bft) S 180 1,8 C 3,1 C
22.11.2012 21:26 3,0 C 91 % 1023,4 hPa 0,0 l/m 2,9 km/h (1 Bft) S 180 1,7 C 3,0 C
22.11.2012 21:31 2,9 C 91 % 1023,5 hPa 0,0 l/m 0,0 km/h (0 Bft) S 180 1,6 C 2,9 C
22.11.2012 21:36 2,9 C 91 % 1023,3 hPa 0,0 l/m 0,0 km/h (0 Bft) S-SW 202 1,6 C 2,9 C
22.11.2012 21:41 2,9 C 91 % 1023,2 hPa 0,0 l/m 0,0 km/h (0 Bft) S 180 1,6 C 2,9 C
22.11.2012 21:46 2,8 C 91 % 1023,2 hPa 0,0 l/m 0,0 km/h (0 Bft) S-SO 157 1,5 C 2,8 C
22.11.2012 21:51 2,7 C 91 % 1023,2 hPa 0,0 l/m 1,1 km/h (1 Bft) S 180 1,4 C 2,7 C
22.11.2012 21:56 2,6 C 91 % 1023,1 hPa 0,0 l/m 1,1 km/h (1 Bft) SO 135 1,3 C 2,6 C
22.11.2012 22:01 2,7 C 91 % 1023,2 hPa 0,0 l/m 1,8 km/h (1 Bft) S 180 1,4 C 2,7 C
22.11.2012 22:06 2,8 C 91 % 1023,0 hPa 0,0 l/m 0,0 km/h (0 Bft) S-SO 157 1,5 C 2,8 C
22.11.2012 22:11 2,8 C 91 % 1023,2 hPa 0,0 l/m 1,4 km/h (1 Bft) S 180 1,5 C 2,8 C
22.11.2012 22:16 2,8 C 91 % 1023,2 hPa 0,0 l/m 4,0 km/h (1 Bft) S-SW 202 1,5 C 2,8 C
22.11.2012 22:21 2,9 C 91 % 1023,2 hPa 0,0 l/m 1,8 km/h (1 Bft) S-SO 157 1,6 C 2,9 C
22.11.2012 22:26 2,9 C 91 % 1023,2 hPa 0,0 l/m 4,0 km/h (1 Bft) S-SO 157 1,6 C 2,9 C
22.11.2012 22:31 2,9 C 91 % 1023,2 hPa 0,0 l/m 4,7 km/h (1 Bft) S 180 1,6 C 1,8 C
22.11.2012 22:36 2,9 C 91 % 1023,3 hPa 0,0 l/m 4,7 km/h (1 Bft) S 180 1,6 C 1,8 C
22.11.2012 22:41 2,9 C 91 % 1023,2 hPa 0,0 l/m 4,0 km/h (1 Bft) S-SO 157 1,6 C 2,9 C
22.11.2012 22:46 2,9 C 91 % 1023,1 hPa 0,0 l/m 0,0 km/h (0 Bft) S-SW 202 1,6 C 2,9 C
22.11.2012 22:51 2,9 C 91 % 1023,3 hPa 0,0 l/m 2,2 km/h (1 Bft) S-SW 202 1,6 C 2,9 C
22.11.2012 22:56 2,9 C 91 % 1023,2 hPa 0,0 l/m 4,0 km/h (1 Bft) S 180 1,6 C 2,9 C
22.11.2012 23:01 2,9 C 91 % 1023,3 hPa 0,0 l/m 0,0 km/h (0 Bft) S-SO 157 1,6 C 2,9 C
22.11.2012 23:06 2,8 C 92 % 1023,4 hPa 0,0 l/m 0,0 km/h (0 Bft) S 180 1,6 C 2,8 C
22.11.2012 23:11 2,7 C 92 % 1023,4 hPa 0,0 l/m 0,0 km/h (0 Bft) S-SO 157 1,5 C 2,7 C
22.11.2012 23:16 2,7 C 92 % 1023,4 hPa 0,0 l/m 0,0 km/h (0 Bft) S-SW 202 1,5 C 2,7 C
22.11.2012 23:21 2,6 C 92 % 1023,4 hPa 0,0 l/m 0,0 km/h (0 Bft) S-SO 157 1,4 C 2,6 C
22.11.2012 23:26 2,6 C 92 % 1023,3 hPa 0,0 l/m 2,9 km/h (1 Bft) S 180 1,4 C 2,6 C
22.11.2012 23:31 2,4 C 91 % 1023,3 hPa 0,0 l/m 2,2 km/h (1 Bft) S 180 1,1 C 2,4 C
22.11.2012 23:36 2,4 C 92 % 1023,4 hPa 0,0 l/m 2,2 km/h (1 Bft) S 180 1,2 C 2,4 C
22.11.2012 23:41 2,4 C 92 % 1023,3 hPa 0,0 l/m 4,7 km/h (1 Bft) S-SO 157 1,2 C 1,3 C
22.11.2012 23:46 2,4 C 92 % 1023,3 hPa 0,0 l/m 0,0 km/h (0 Bft) S 180 1,2 C 2,4 C
22.11.2012 23:51 2,3 C 92 % 1023,2 hPa 0,0 l/m 0,0 km/h (0 Bft) S-SO 157 1,1 C 2,3 C
22.11.2012 23:56 2,2 C 92 % 1023,3 hPa 0,0 l/m 2,2 km/h (1 Bft) S-SO 157 1,0 C 2,2 C
_ Min-Zeit 00:21 14:51 00:01 - 00:01 - - 23:56 04:11
Minimum _ 2,0 C 77 % 1017,9 hPa - 0,0 km/h (0 Bft) - - 1,0 C 0,4 C
_ Max-Zeit 13:56 01:26 16:41 00:01 11:31 - - 11:06 14:26
Maximum _ 9,9 C 95 % 1023,9 hPa 0,0 l/m 28,8 km/h
W (4 Bft)
- - 6,6 C 9,8 C
Durchschnitt _ 5,6 C 89 % 1021,8 hPa #0,0 l/m 5,9 km/h (2 Bft) W-SW - 3,8 C 4,7 C
(c) by David Heller